createdAt,value
2022-08-26T00:01:54.053Z,22.88
2022-08-26T00:04:23.741Z,23.16
2022-08-26T00:06:52.026Z,23.53
2022-08-26T00:09:19.297Z,23.47
2022-08-26T00:11:46.361Z,23.42
2022-08-26T00:14:15.988Z,23.41
2022-08-26T00:16:47.887Z,23.24
2022-08-26T00:19:21.392Z,23.07
2022-08-26T00:21:49.831Z,22.92
2022-08-26T00:24:21.831Z,23.33
2022-08-26T00:26:49.854Z,23.64
2022-08-26T00:29:17.596Z,23.90
2022-08-26T00:31:45.196Z,23.96
2022-08-26T00:34:13.183Z,23.61
2022-08-26T00:36:41.153Z,23.51
2022-08-26T00:39:08.650Z,23.33
2022-08-26T00:41:39.207Z,23.75
2022-08-26T00:44:07.256Z,24.18
2022-08-26T00:46:39.811Z,24.57
2022-08-26T00:49:23.627Z,24.91
2022-08-26T00:51:57.124Z,24.86
2022-08-26T00:54:27.367Z,24.57
2022-08-26T00:57:08.675Z,24.23
2022-08-26T00:59:45.465Z,24.16
2022-08-26T01:02:20.960Z,24.33
2022-08-26T01:04:55.528Z,24.68
2022-08-26T01:07:30.250Z,25.00
2022-08-26T01:10:01.094Z,25.25
2022-08-26T01:12:38.818Z,24.94
2022-08-26T01:15:13.793Z,24.57
2022-08-26T01:17:41.598Z,24.23
2022-08-26T01:20:49.753Z,24.25
2022-08-26T01:23:17.239Z,24.42
2022-08-26T01:25:50.718Z,24.51
2022-08-26T01:28:24.187Z,24.68
2022-08-26T01:30:53.519Z,24.69
2022-08-26T01:33:29.687Z,24.47
2022-08-26T01:36:08.487Z,24.22
2022-08-26T01:38:35.883Z,24.32
2022-08-26T01:41:04.668Z,24.59
2022-08-26T01:43:46.973Z,24.89
2022-08-26T01:46:17.493Z,25.23
2022-08-26T01:48:46.203Z,25.24
2022-08-26T01:51:17.132Z,25.12
2022-08-26T01:53:45.968Z,24.83
2022-08-26T01:56:14.713Z,24.58
2022-08-26T01:59:03.521Z,24.39
2022-08-26T02:01:31.603Z,24.52
2022-08-26T02:04:19.174Z,24.73
2022-08-26T02:06:48.035Z,24.84
2022-08-26T02:09:16.563Z,24.89
2022-08-26T02:11:45.223Z,24.62
2022-08-26T02:14:19.984Z,24.26
2022-08-26T02:16:50.340Z,24.09
2022-08-26T02:19:30.204Z,23.81
2022-08-26T02:22:00.469Z,23.53
2022-08-26T02:24:46.386Z,23.37
2022-08-26T02:27:14.908Z,23.31
2022-08-26T02:29:46.629Z,23.12
2022-08-26T02:32:18.506Z,23.05
2022-08-26T02:34:46.549Z,22.82
2022-08-26T02:37:14.341Z,22.59
2022-08-26T02:39:44.664Z,22.51
2022-08-26T02:42:12.009Z,22.43
2022-08-26T02:44:39.176Z,22.39
2022-08-26T02:47:07.953Z,22.26
2022-08-26T02:49:35.021Z,22.27
2022-08-26T02:52:02.125Z,22.30
2022-08-26T02:54:29.259Z,22.25
2022-08-26T02:56:56.399Z,22.15
2022-08-26T02:59:24.675Z,22.06
2022-08-26T03:01:52.451Z,22.11
2022-08-26T03:04:25.866Z,21.83
2022-08-26T03:06:53.719Z,21.90
2022-08-26T03:09:23.469Z,21.85
2022-08-26T03:11:51.296Z,21.81
2022-08-26T03:14:18.556Z,21.85
2022-08-26T03:16:48.456Z,21.80
2022-08-26T03:19:17.611Z,21.83
2022-08-26T03:21:44.871Z,21.83
2022-08-26T03:24:15.849Z,21.82
2022-08-26T03:26:52.621Z,21.81
2022-08-26T03:29:39.765Z,21.69
2022-08-26T03:32:07.368Z,21.76
2022-08-26T03:34:35.469Z,21.61
2022-08-26T03:37:02.522Z,21.72
2022-08-26T03:39:31.543Z,21.84
2022-08-26T03:41:59.102Z,22.54
2022-08-26T03:44:26.765Z,23.15
2022-08-26T03:46:54.984Z,23.67
2022-08-26T03:49:22.479Z,24.14
2022-08-26T03:51:50.165Z,24.48
2022-08-26T03:54:18.044Z,24.61
2022-08-26T03:56:46.539Z,24.40
2022-08-26T03:59:13.731Z,24.12
2022-08-26T04:01:41.033Z,24.04
2022-08-26T04:04:08.643Z,24.04
2022-08-26T04:06:39.167Z,23.85
2022-08-26T04:09:10.331Z,23.72
2022-08-26T04:11:39.608Z,23.99
2022-08-26T04:14:10.371Z,24.32
2022-08-26T04:16:37.401Z,24.62
2022-08-26T04:19:09.221Z,24.75
2022-08-26T04:21:38.426Z,24.93
2022-08-26T04:24:11.359Z,25.31
2022-08-26T04:26:42.614Z,25.70
2022-08-26T04:29:14.415Z,25.97
2022-08-26T04:31:42.230Z,26.11
2022-08-26T04:34:10.928Z,26.26
2022-08-26T04:36:38.705Z,26.49
2022-08-26T04:39:05.833Z,26.81
2022-08-26T04:41:34.136Z,26.91
2022-08-26T04:44:02.532Z,27.08
2022-08-26T04:46:30.034Z,27.29
2022-08-26T04:48:57.295Z,27.41
2022-08-26T04:51:28.311Z,27.43
2022-08-26T04:53:59.552Z,27.65
2022-08-26T04:56:29.073Z,27.68
2022-08-26T04:58:56.640Z,28.12
2022-08-26T05:01:24.450Z,28.33
2022-08-26T05:03:51.755Z,28.53
2022-08-26T05:06:20.710Z,28.81
2022-08-26T05:08:49.194Z,29.11
2022-08-26T05:11:16.337Z,29.33
2022-08-26T05:13:43.445Z,29.40
2022-08-26T05:16:13.857Z,29.60
2022-08-26T05:18:43.679Z,29.50
2022-08-26T05:21:23.810Z,29.53
2022-08-26T05:23:51.626Z,29.77
2022-08-26T05:26:23.129Z,29.98
2022-08-26T05:28:51.203Z,30.25
2022-08-26T05:31:31.578Z,30.57
2022-08-26T05:34:00.457Z,30.67
2022-08-26T05:36:34.468Z,30.82
2022-08-26T05:39:04.338Z,30.78
2022-08-26T05:41:36.256Z,30.92
2022-08-26T05:44:07.262Z,30.95
2022-08-26T05:46:35.657Z,31.20
2022-08-26T05:49:05.681Z,31.27
2022-08-26T05:51:35.125Z,31.28
2022-08-26T05:54:04.027Z,31.44
2022-08-26T05:56:31.191Z,31.61
2022-08-26T05:58:58.707Z,31.90
2022-08-26T06:01:28.619Z,32.17
2022-08-26T06:03:59.700Z,32.36
2022-08-26T06:06:32.708Z,32.43
2022-08-26T06:09:02.133Z,32.77
2022-08-26T06:11:32.277Z,32.90
2022-08-26T06:14:03.898Z,32.95
2022-08-26T06:16:34.781Z,32.55
2022-08-26T06:19:03.535Z,32.18
2022-08-26T06:21:40.274Z,32.13
2022-08-26T06:24:29.224Z,32.70
2022-08-26T06:27:02.719Z,33.06
2022-08-26T06:29:33.740Z,33.45
2022-08-26T06:32:02.818Z,33.76
2022-08-26T06:34:30.817Z,34.31
2022-08-26T06:37:02.695Z,34.67
2022-08-26T06:39:31.806Z,34.95
2022-08-26T06:42:00.818Z,35.41
2022-08-26T06:44:34.580Z,35.45
2022-08-26T06:47:01.693Z,35.76
2022-08-26T06:49:28.791Z,35.76
2022-08-26T06:51:59.745Z,35.91
2022-08-26T06:54:28.927Z,36.11
2022-08-26T06:56:57.252Z,36.57
2022-08-26T06:59:25.010Z,36.37
2022-08-26T07:01:52.536Z,36.07
2022-08-26T07:04:23.157Z,36.79
2022-08-26T07:06:52.789Z,37.35
2022-08-26T07:09:22.221Z,37.65
2022-08-26T07:11:51.565Z,37.92
2022-08-26T07:14:21.443Z,38.07
2022-08-26T07:16:50.747Z,38.10
2022-08-26T07:19:31.172Z,38.58
2022-08-26T07:22:04.818Z,38.32
2022-08-26T07:24:36.724Z,38.66
2022-08-26T07:27:07.439Z,38.71
2022-08-26T07:29:38.000Z,39.13
2022-08-26T07:32:06.534Z,39.41
2022-08-26T07:34:34.119Z,39.03
2022-08-26T07:37:02.140Z,38.93
2022-08-26T07:39:31.500Z,39.09
2022-08-26T07:42:03.816Z,39.38
2022-08-26T07:44:37.061Z,39.68
2022-08-26T07:47:10.393Z,39.35
2022-08-26T07:49:52.875Z,38.64
2022-08-26T07:52:26.018Z,38.92
2022-08-26T07:54:55.128Z,38.96
2022-08-26T07:57:25.343Z,39.30
2022-08-26T07:59:55.386Z,39.37
2022-08-26T08:02:25.334Z,39.91
2022-08-26T08:04:53.678Z,40.13
2022-08-26T08:07:38.520Z,39.61
2022-08-26T08:10:20.849Z,39.47
2022-08-26T08:12:54.598Z,39.92
2022-08-26T08:15:26.893Z,40.39
2022-08-26T08:18:00.194Z,40.46
2022-08-26T08:20:31.067Z,40.01
2022-08-26T08:23:04.357Z,40.32
2022-08-26T08:25:34.569Z,39.27
2022-08-26T08:28:02.180Z,39.34
2022-08-26T08:30:29.890Z,39.63
2022-08-26T08:32:57.052Z,40.15
2022-08-26T08:35:26.576Z,39.96
2022-08-26T08:37:57.236Z,40.28
2022-08-26T08:40:26.609Z,39.94
2022-08-26T08:43:30.806Z,39.62
2022-08-26T08:46:11.311Z,39.86
2022-08-26T08:48:43.992Z,39.29
2022-08-26T08:51:16.976Z,39.30
2022-08-26T08:53:49.748Z,39.78
2022-08-26T08:56:46.964Z,39.62
2022-08-26T08:59:24.363Z,39.34
2022-08-26T09:01:52.276Z,39.67
2022-08-26T09:04:39.045Z,39.33
2022-08-26T09:07:10.325Z,39.59
2022-08-26T09:09:52.466Z,40.23
2022-08-26T09:12:29.378Z,40.55
2022-08-26T09:15:31.661Z,40.72
2022-08-26T09:18:35.589Z,40.10
2022-08-26T09:21:06.916Z,40.25
2022-08-26T09:23:36.689Z,40.94
2022-08-26T09:26:16.088Z,41.25
2022-08-26T09:28:48.353Z,41.60
2022-08-26T09:31:25.428Z,41.31
2022-08-26T09:34:17.576Z,40.37
2022-08-26T09:36:55.245Z,40.58
2022-08-26T09:39:28.415Z,41.05
2022-08-26T09:42:23.684Z,40.77
2022-08-26T09:45:07.777Z,40.63
2022-08-26T09:47:48.107Z,40.71
2022-08-26T09:50:30.611Z,40.82
2022-08-26T09:53:05.437Z,41.18
2022-08-26T09:55:37.739Z,41.51
2022-08-26T09:58:08.752Z,41.71
2022-08-26T10:00:42.067Z,41.27
2022-08-26T10:03:25.499Z,40.41
2022-08-26T10:06:01.755Z,40.56
2022-08-26T10:08:33.978Z,40.65
2022-08-26T10:11:07.563Z,39.92
2022-08-26T10:13:41.141Z,39.94
2022-08-26T10:16:37.829Z,40.23
2022-08-26T10:19:16.408Z,40.34
2022-08-26T10:22:02.000Z,40.37
2022-08-26T10:25:09.426Z,38.80
2022-08-26T10:32:09.463Z,37.97
2022-08-26T10:35:08.701Z,38.51
2022-08-26T10:37:54.246Z,39.22
2022-08-26T10:40:44.994Z,39.00
2022-08-26T10:43:56.595Z,39.06
2022-08-26T10:46:30.810Z,38.81
2022-08-26T10:49:09.456Z,37.33
2022-08-26T10:51:47.712Z,35.93
2022-08-26T10:54:42.467Z,35.74
2022-08-26T10:57:28.122Z,35.62
2022-08-26T11:00:37.732Z,36.27
2022-08-26T11:03:35.787Z,37.73
2022-08-26T11:06:25.921Z,39.18
2022-08-26T11:09:12.223Z,40.06
2022-08-26T11:11:46.813Z,40.36
2022-08-26T11:14:29.358Z,40.11
2022-08-26T11:16:58.922Z,39.58
2022-08-26T11:20:01.197Z,39.83
2022-08-26T11:22:38.136Z,40.41
2022-08-26T11:25:19.152Z,40.09
2022-08-26T11:27:51.223Z,40.23
2022-08-26T11:30:24.150Z,40.74
2022-08-26T11:32:54.240Z,41.40
2022-08-26T11:35:21.787Z,42.15
2022-08-26T11:37:54.522Z,42.79
2022-08-26T11:40:30.579Z,41.21
2022-08-26T11:43:01.188Z,38.76
2022-08-26T11:45:39.349Z,38.11
2022-08-26T11:48:36.767Z,38.00
2022-08-26T11:51:24.755Z,38.41
2022-08-26T11:53:52.094Z,39.25
2022-08-26T11:56:31.597Z,40.59
2022-08-26T11:59:02.591Z,41.41
2022-08-26T12:01:38.077Z,42.27
2022-08-26T12:04:17.575Z,41.90
2022-08-26T12:06:51.180Z,41.70
2022-08-26T12:09:24.972Z,40.81
2022-08-26T12:11:58.007Z,39.54
2022-08-26T12:14:27.750Z,39.58
2022-08-26T12:16:55.156Z,40.58
2022-08-26T12:19:27.468Z,41.02
2022-08-26T12:22:14.154Z,40.66
2022-08-26T12:24:54.429Z,39.89
2022-08-26T12:27:28.076Z,40.17
2022-08-26T12:30:02.951Z,41.05
2022-08-26T12:32:35.121Z,42.07
2022-08-26T12:37:40.319Z,43.37
2022-08-26T12:40:26.363Z,41.51
2022-08-26T12:42:53.878Z,40.26
2022-08-26T12:45:38.275Z,38.88
2022-08-26T12:48:11.218Z,38.67
2022-08-26T12:50:46.205Z,39.32
2022-08-26T12:53:25.913Z,40.71
2022-08-26T12:55:54.544Z,41.27
2022-08-26T12:58:36.635Z,41.01
2022-08-26T13:01:07.104Z,41.31
2022-08-26T13:03:34.836Z,41.21
2022-08-26T13:06:15.499Z,41.44
2022-08-26T13:08:46.187Z,40.76
2022-08-26T13:11:20.676Z,41.28
2022-08-26T13:14:12.281Z,39.94
2022-08-26T13:16:49.412Z,38.34
2022-08-26T13:19:23.923Z,38.09
2022-08-26T13:21:55.609Z,38.07
2022-08-26T13:24:34.455Z,38.67
2022-08-26T13:27:03.568Z,38.50
2022-08-26T13:29:32.080Z,38.16
2022-08-26T13:31:59.867Z,38.16
2022-08-26T13:34:27.927Z,38.46
2022-08-26T13:36:56.507Z,38.70
2022-08-26T13:39:24.520Z,37.87
2022-08-26T13:41:52.244Z,38.34
2022-08-26T13:44:19.497Z,38.64
2022-08-26T13:46:46.742Z,38.73
2022-08-26T13:49:14.274Z,39.63
2022-08-26T13:51:42.117Z,40.05
2022-08-26T13:54:10.146Z,39.69
2022-08-26T13:56:37.661Z,39.72
2022-08-26T13:59:06.567Z,39.10
2022-08-26T14:01:34.653Z,39.45
2022-08-26T14:04:03.262Z,40.18
2022-08-26T14:06:30.649Z,39.69
2022-08-26T14:08:57.986Z,39.51
2022-08-26T14:11:25.252Z,38.80
2022-08-26T14:13:52.630Z,38.60
2022-08-26T14:16:33.525Z,38.54
2022-08-26T14:19:01.837Z,38.85
2022-08-26T14:21:31.327Z,38.36
2022-08-26T14:24:01.012Z,37.52
2022-08-26T14:26:30.202Z,37.29
2022-08-26T14:29:00.136Z,36.86
2022-08-26T14:31:32.127Z,36.90
2022-08-26T14:34:05.511Z,36.35
2022-08-26T14:36:42.835Z,36.11
2022-08-26T14:39:28.121Z,35.17
2022-08-26T14:41:56.773Z,35.38
2022-08-26T14:44:34.752Z,35.06
2022-08-26T14:47:06.850Z,34.82
2022-08-26T14:49:35.168Z,34.84
2022-08-26T14:52:03.301Z,34.56
2022-08-26T14:54:30.663Z,33.78
2022-08-26T14:57:05.053Z,33.33
2022-08-26T14:59:38.461Z,32.75
2022-08-26T15:02:07.445Z,32.33
2022-08-26T15:04:35.504Z,32.29
2022-08-26T15:07:06.796Z,32.01
2022-08-26T15:09:43.641Z,31.51
2022-08-26T15:12:15.082Z,31.55
2022-08-26T15:14:44.487Z,31.23
2022-08-26T15:17:13.440Z,31.31
2022-08-26T15:19:41.428Z,30.97
2022-08-26T15:22:09.068Z,31.04
2022-08-26T15:24:37.160Z,30.93
2022-08-26T15:27:04.428Z,30.78
2022-08-26T15:29:32.848Z,30.62
2022-08-26T15:32:04.268Z,30.34
2022-08-26T15:34:32.129Z,30.19
2022-08-26T15:36:59.543Z,30.11
2022-08-26T15:39:26.501Z,30.04
2022-08-26T15:41:56.287Z,30.08
2022-08-26T15:44:23.489Z,30.43
2022-08-26T15:46:54.256Z,30.75
2022-08-26T15:49:23.752Z,30.74
2022-08-26T15:51:50.801Z,30.78
2022-08-26T15:54:21.021Z,30.78
2022-08-26T15:56:50.789Z,31.16
2022-08-26T15:59:18.135Z,31.59
2022-08-26T16:01:46.605Z,31.86
2022-08-26T16:04:14.328Z,31.95
2022-08-26T16:06:43.577Z,32.20
2022-08-26T16:09:11.048Z,32.69
2022-08-26T16:11:38.235Z,32.81
2022-08-26T16:14:06.327Z,32.99
2022-08-26T16:16:33.415Z,33.27
2022-08-26T16:19:25.961Z,33.51
2022-08-26T16:21:53.268Z,33.03
2022-08-26T16:24:25.895Z,32.77
2022-08-26T16:26:55.696Z,32.91
2022-08-26T16:29:26.769Z,33.15
2022-08-26T16:31:54.858Z,32.05
2022-08-26T16:34:22.241Z,31.32
2022-08-26T16:36:49.278Z,30.68
2022-08-26T16:39:16.387Z,30.21
2022-08-26T16:41:44.404Z,29.84
2022-08-26T16:44:12.160Z,29.38
2022-08-26T16:46:39.827Z,29.04
2022-08-26T16:49:06.955Z,28.89
2022-08-26T16:51:38.523Z,28.86
2022-08-26T16:54:07.702Z,28.66
2022-08-26T16:56:36.198Z,28.72
2022-08-26T16:59:08.199Z,28.56
2022-08-26T17:01:35.852Z,28.51
2022-08-26T17:04:03.948Z,28.45
2022-08-26T17:06:30.955Z,28.28
2022-08-26T17:08:57.938Z,28.27
2022-08-26T17:11:25.043Z,28.25
2022-08-26T17:13:52.276Z,28.04
2022-08-26T17:16:22.247Z,28.08
2022-08-26T17:18:52.066Z,27.94
2022-08-26T17:21:19.154Z,27.89
2022-08-26T17:23:46.223Z,27.85
2022-08-26T17:26:13.303Z,27.80
2022-08-26T17:28:40.757Z,27.77
2022-08-26T17:31:09.623Z,27.77
2022-08-26T17:33:37.235Z,27.79
2022-08-26T17:36:07.696Z,27.76
2022-08-26T17:38:35.884Z,27.70
2022-08-26T17:41:03.534Z,27.70
2022-08-26T17:43:31.491Z,27.70
2022-08-26T17:46:06.928Z,27.54
2022-08-26T17:48:38.819Z,27.58
2022-08-26T17:51:11.180Z,27.56
2022-08-26T17:53:38.930Z,27.56
2022-08-26T17:56:09.025Z,27.57
2022-08-26T17:58:36.983Z,27.62
2022-08-26T18:01:06.052Z,27.58
2022-08-26T18:03:33.901Z,27.63
2022-08-26T18:06:01.430Z,28.28
2022-08-26T18:08:28.666Z,29.69
2022-08-26T18:10:55.653Z,30.49
2022-08-26T18:13:22.746Z,31.00
2022-08-26T18:15:49.993Z,31.32
2022-08-26T18:18:17.049Z,31.52
2022-08-26T18:20:45.248Z,31.60
2022-08-26T18:23:13.309Z,31.65
2022-08-26T18:25:44.170Z,31.91
2022-08-26T18:28:11.671Z,31.54
2022-08-26T18:30:41.390Z,31.26
2022-08-26T18:33:11.346Z,31.45
2022-08-26T18:35:41.064Z,31.51
2022-08-26T18:38:11.924Z,31.87
2022-08-26T18:40:43.794Z,31.98
2022-08-26T18:43:12.233Z,32.00
2022-08-26T18:45:39.453Z,32.49
2022-08-26T18:48:06.847Z,32.60
2022-08-26T18:50:37.618Z,32.54
2022-08-26T18:53:04.789Z,32.68
2022-08-26T18:55:32.044Z,32.77
2022-08-26T18:57:59.579Z,32.91
2022-08-26T19:00:27.757Z,33.30
2022-08-26T19:02:56.139Z,33.05
2022-08-26T19:05:23.401Z,32.91
2022-08-26T19:07:53.879Z,32.63
2022-08-26T19:10:21.743Z,32.19
2022-08-26T19:12:51.909Z,31.75
2022-08-26T19:15:20.036Z,31.25
2022-08-26T19:17:48.327Z,31.11
2022-08-26T19:23:31.754Z,30.42
2022-08-26T19:26:07.234Z,30.78
2022-08-26T19:28:35.263Z,30.57
2022-08-26T19:31:03.608Z,30.40
2022-08-26T19:33:31.254Z,30.13
2022-08-26T19:36:03.668Z,30.10
2022-08-26T19:38:34.781Z,30.02
2022-08-26T19:41:02.008Z,29.81
2022-08-26T19:43:34.058Z,30.02
2022-08-26T19:46:01.516Z,30.06
2022-08-26T19:48:29.562Z,29.93
2022-08-26T19:50:56.903Z,29.93
2022-08-26T19:53:23.913Z,29.73
2022-08-26T19:55:51.758Z,29.52
2022-08-26T19:58:18.796Z,29.56
2022-08-26T20:00:46.037Z,29.38
2022-08-26T20:03:15.902Z,28.10
2022-08-26T20:05:44.826Z,27.79
2022-08-26T20:08:22.421Z,28.10
2022-08-26T20:10:50.823Z,28.22
2022-08-26T20:13:19.140Z,28.15
2022-08-26T20:15:46.421Z,27.94
2022-08-26T20:18:32.018Z,27.80
2022-08-26T20:21:19.724Z,27.79
2022-08-26T20:23:49.184Z,28.03
2022-08-26T20:26:19.346Z,27.91
2022-08-26T20:28:47.346Z,28.18
2022-08-26T20:31:19.474Z,28.47
2022-08-26T20:33:47.083Z,28.63
2022-08-26T20:36:15.530Z,28.39
2022-08-26T20:38:43.189Z,28.28
2022-08-26T20:41:10.670Z,28.50
2022-08-26T20:43:37.846Z,28.22
2022-08-26T20:46:08.305Z,28.31
2022-08-26T20:48:41.559Z,28.69
2022-08-26T20:51:09.653Z,28.49
2022-08-26T20:53:37.544Z,27.91
2022-08-26T20:56:07.514Z,27.42
2022-08-26T20:58:34.959Z,27.29
2022-08-26T21:01:07.342Z,27.19
2022-08-26T21:03:36.806Z,27.15
2022-08-26T21:06:04.189Z,27.09
2022-08-26T21:08:33.147Z,27.09
2022-08-26T21:11:01.971Z,27.32
2022-08-26T21:13:39.189Z,27.47
2022-08-26T21:16:15.899Z,27.03
2022-08-26T21:18:43.265Z,26.99
2022-08-26T21:21:10.609Z,26.77
2022-08-26T21:23:37.941Z,26.54
2022-08-26T21:26:08.615Z,26.65
2022-08-26T21:28:39.569Z,27.05
2022-08-26T21:31:08.552Z,27.20
2022-08-26T21:33:36.632Z,27.03
2022-08-26T21:36:04.714Z,26.87
2022-08-26T21:38:32.860Z,26.90
2022-08-26T21:41:15.360Z,26.61
2022-08-26T21:43:43.407Z,26.42
2022-08-26T21:46:16.963Z,26.41
2022-08-26T21:48:50.328Z,26.24
2022-08-26T21:51:20.656Z,26.07
2022-08-26T21:53:48.264Z,25.98
2022-08-26T21:56:18.133Z,25.81
2022-08-26T21:58:45.755Z,25.81
2022-08-26T22:01:16.111Z,25.74
2022-08-26T22:03:47.525Z,25.45
2022-08-26T22:06:17.590Z,25.14
2022-08-26T22:08:44.691Z,24.79
2022-08-26T22:11:12.925Z,24.50
2022-08-26T22:13:41.582Z,24.43
2022-08-26T22:16:09.615Z,24.44
2022-08-26T22:18:37.716Z,24.88
2022-08-26T22:21:08.515Z,24.67
2022-08-26T22:23:37.436Z,24.56
2022-08-26T22:26:06.813Z,24.79
2022-08-26T22:28:35.033Z,24.99
2022-08-26T22:31:02.253Z,25.39
2022-08-26T22:33:29.735Z,25.58
2022-08-26T22:35:57.306Z,25.79
2022-08-26T22:38:25.167Z,25.26
2022-08-26T22:40:56.625Z,25.05
2022-08-26T22:43:25.830Z,25.26
2022-08-26T22:45:53.550Z,25.14
2022-08-26T22:48:27.015Z,25.11
2022-08-26T22:51:00.131Z,24.95
2022-08-26T22:53:28.016Z,24.76
2022-08-26T22:55:55.104Z,24.90
2022-08-26T22:58:23.038Z,25.26
2022-08-26T23:00:57.983Z,25.38
2022-08-26T23:03:27.419Z,25.79
2022-08-26T23:05:58.389Z,26.20
2022-08-26T23:08:26.831Z,26.46
2022-08-26T23:10:54.030Z,26.70
2022-08-26T23:13:21.256Z,26.97
2022-08-26T23:15:48.358Z,26.94
2022-08-26T23:18:16.546Z,26.84
2022-08-26T23:20:43.998Z,26.79
2022-08-26T23:23:11.167Z,26.78
2022-08-26T23:25:38.280Z,26.52
2022-08-26T23:28:08.640Z,26.48
2022-08-26T23:30:35.759Z,26.39
2022-08-26T23:33:02.925Z,26.15
2022-08-26T23:35:30.207Z,26.31
2022-08-26T23:37:58.994Z,26.26
2022-08-26T23:40:32.854Z,26.14
2022-08-26T23:43:03.356Z,26.04
2022-08-26T23:45:31.967Z,26.20
2022-08-26T23:47:59.420Z,26.46
2022-08-26T23:50:49.450Z,26.46
2022-08-26T23:53:20.641Z,26.45
2022-08-26T23:55:50.691Z,26.07
2022-08-26T23:58:20.432Z,26.04
